Time;durP1;ratioP1;P1;durP2;ratioP2;P2;SDS_P1;SDS_P2;PMS_P1;PMS_P2;Temp;Humidity;BMP_temperature;BMP_pressure;BME280_temperature;BME280_humidity;BME280_pressure;Samples;Min_cycle;Max_cycle;Signal;HPM_P1;HPM_P2
2023/03/10 00:00:07;;;;;;;;;;;11.10;99.90;11.60;98231.00;;;;337806;28;82541;-94
2023/03/10 00:00:19;;;;;;;;;;;11.10;99.90;11.60;98244.00;;;;338713;28;90678;-93
2023/03/10 00:00:31;;;;;;;;;;;11.10;99.90;11.50;98243.00;;;;337980;28;83224;-94
2023/03/10 00:00:43;;;;;;;;;;;11.10;99.90;11.60;98247.00;;;;337510;28;90086;-93
2023/03/10 00:00:55;;;;;;;;;;;11.10;99.90;11.60;98234.00;;;;341031;28;83476;-94
2023/03/10 00:01:15;;;;;;;;;;;11.10;99.90;11.50;98247.00;;;;338675;28;90603;-94
2023/03/10 00:01:28;;;;;;;;;;;11.10;99.90;11.50;98245.00;;;;340584;28;82987;-94
2023/03/10 00:01:40;;;;;;;;;;;11.10;99.90;11.50;98247.00;;;;338771;28;90930;-94
2023/03/10 00:01:52;;;;;;;;;;;11.10;99.90;11.50;98247.00;;;;338039;28;84044;-94
2023/03/10 00:02:04;;;;;;;;;;;11.10;99.90;11.50;98249.00;;;;340155;28;89631;-95
2023/03/10 00:02:15;;;;;;;;;;;11.10;99.90;11.50;98247.00;;;;339396;28;83119;-94
2023/03/10 00:02:31;;;;;;;;;;;11.10;99.90;11.50;98251.00;;;;337631;28;88167;-95
2023/03/10 00:02:48;;;;;;;;;;;11.10;99.90;11.60;98247.00;;;;337989;28;82634;-94
2023/03/10 00:03:00;;;;;;;;;;;11.10;99.90;11.60;98243.00;;;;337677;28;89713;-94
2023/03/10 00:03:12;;;;;;;;;;;11.10;99.90;11.60;98252.00;;;;337926;28;83580;-94
2023/03/10 00:03:23;;;;;;;;;;;11.10;99.90;11.50;98249.00;;;;337708;28;88445;-95
2023/03/10 00:03:35;;;;;;;;;;;11.10;99.90;11.60;98239.00;;;;339381;28;82449;-94
2023/03/10 00:03:47;;;;;;;;;;;11.10;99.90;11.60;98247.00;;;;338793;28;90132;-94
2023/03/10 00:03:59;;;;;;;;;;;11.10;99.90;11.50;98244.00;;;;340637;28;82529;-94
2023/03/10 00:04:11;;;;;;;;;;;11.10;99.90;11.50;98246.00;;;;338867;28;90054;-94
2023/03/10 00:04:23;;;;;;;;;;;11.10;99.90;11.50;98248.00;;;;339326;28;83470;-94
2023/03/10 00:04:35;;;;;;;;;;;11.10;99.90;11.60;98243.00;;;;337538;28;88412;-94
2023/03/10 00:04:51;;;;;;;;;;;11.10;99.90;11.60;98244.00;;;;341976;28;82547;-94
2023/03/10 00:05:03;;;;;;;;;;;11.10;99.90;11.60;98241.00;;;;341473;27;91008;-94
2023/03/10 00:05:17;;;;;;;;;;;11.10;99.90;11.60;98245.00;;;;339240;28;82486;-95
2023/03/10 00:05:29;;;;;;;;;;;11.10;99.90;11.60;98239.00;;;;339821;28;90692;-94
2023/03/10 00:05:40;;;;;;;;;;;11.10;99.90;11.60;98250.00;;;;339441;28;83386;-94
2023/03/10 00:05:52;;;;;;;;;;;11.10;99.90;11.60;98238.00;;;;338778;28;88943;-94
2023/03/10 00:06:05;;;;;;;;;;;11.10;99.90;11.50;98243.00;;;;338076;28;82490;-94
2023/03/10 00:06:19;;;;;;;;;;;11.10;99.90;11.60;98245.00;;;;339133;28;88671;-94
2023/03/10 00:06:32;;;;;;;;;;;11.10;99.90;11.60;98239.00;;;;340389;28;83329;-94
2023/03/10 00:06:44;;;;;;;;;;;11.10;99.90;11.60;98236.00;;;;339971;28;89541;-95
2023/03/10 00:06:56;;;;;;;;;;;11.10;99.90;11.60;98241.00;;;;340216;28;83483;-94
2023/03/10 00:07:08;;;;;;;;;;;11.20;99.90;11.60;98239.00;;;;338794;28;91611;-94
2023/03/10 00:07:19;;;;;;;;;;;11.10;99.90;11.50;98242.00;;;;339454;28;82647;-94
2023/03/10 00:07:31;;;;;;;;;;;11.10;99.90;11.50;98241.00;;;;341932;28;89286;-94
2023/03/10 00:07:43;;;;;;;;;;;11.10;99.90;11.50;98243.00;;;;340925;28;83116;-94
2023/03/10 00:07:55;;;;;;;;;;;11.10;99.90;11.50;98238.00;;;;340548;28;89422;-94
2023/03/10 00:08:07;;;;;;;;;;;11.10;99.90;11.50;98233.00;;;;338486;28;82490;-94
2023/03/10 00:08:19;;;;;;;;;;;11.10;99.90;11.50;98246.00;;;;341678;28;90263;-94
2023/03/10 00:08:31;;;;;;;;;;;11.10;99.90;11.60;98229.00;;;;342418;28;82454;-94
2023/03/10 00:08:43;;;;;;;;;;;11.10;99.90;11.60;98236.00;;;;340179;28;90927;-94
2023/03/10 00:08:55;;;;;;;;;;;11.10;99.90;11.50;98235.00;;;;341108;28;82643;-95
2023/03/10 00:09:07;;;;;;;;;;;11.10;99.90;11.60;98237.00;;;;339172;28;90252;-94
2023/03/10 00:09:18;;;;;;;;;;;11.10;99.90;11.50;98232.00;;;;339616;28;82709;-94
2023/03/10 00:09:30;;;;;;;;;;;11.10;99.90;11.60;98236.00;;;;339146;28;86865;-95
2023/03/10 00:09:42;;;;;;;;;;;11.10;99.90;11.60;98242.00;;;;338606;28;83276;-95
2023/03/10 00:09:54;;;;;;;;;;;11.10;99.90;11.60;98236.00;;;;337964;28;89276;-94
2023/03/10 00:10:07;;;;;;;;;;;11.10;99.90;11.60;98240.00;;;;340253;28;83620;-94
2023/03/10 00:10:19;;;;;;;;;;;11.10;99.90;11.60;98237.00;;;;337873;28;90928;-93
2023/03/10 00:10:31;;;;;;;;;;;11.10;99.90;11.50;98246.00;;;;339546;28;83257;-95
2023/03/10 00:10:42;;;;;;;;;;;11.10;99.90;11.60;98242.00;;;;336493;28;87948;-94
2023/03/10 00:10:54;;;;;;;;;;;11.10;99.90;11.60;98246.00;;;;338537;28;82491;-94
2023/03/10 00:11:06;;;;;;;;;;;11.10;99.90;11.50;98241.00;;;;339348;28;91398;-94
2023/03/10 00:11:18;;;;;;;;;;;11.10;99.90;11.60;98241.00;;;;339641;28;82574;-94
2023/03/10 00:11:29;;;;;;;;;;;11.10;99.90;11.60;98245.00;;;;338018;28;91641;-95
2023/03/10 00:11:41;;;;;;;;;;;11.10;99.90;11.50;98244.00;;;;339558;28;82329;-94
2023/03/10 00:11:53;;;;;;;;;;;11.10;99.90;11.50;98242.00;;;;337726;28;91459;-94
2023/03/10 00:12:05;;;;;;;;;;;11.10;99.90;11.60;98248.00;;;;340793;28;83345;-93
2023/03/10 00:12:17;;;;;;;;;;;11.10;99.90;11.50;98249.00;;;;340367;28;90597;-94
2023/03/10 00:12:29;;;;;;;;;;;11.10;99.90;11.60;98239.00;;;;339290;28;83296;-94
2023/03/10 00:12:41;;;;;;;;;;;11.10;99.90;11.60;98238.00;;;;339046;28;90965;-95
2023/03/10 00:12:53;;;;;;;;;;;11.10;99.90;11.60;98244.00;;;;340668;28;82466;-94
2023/03/10 00:13:04;;;;;;;;;;;11.10;99.90;11.60;98247.00;;;;338947;28;91640;-94
2023/03/10 00:13:16;;;;;;;;;;;11.10;99.90;11.60;98239.00;;;;339288;28;82616;-94
2023/03/10 00:13:28;;;;;;;;;;;11.10;99.90;11.60;98236.00;;;;341498;28;91640;-94
2023/03/10 00:13:40;;;;;;;;;;;11.10;99.90;11.60;98238.00;;;;339395;28;83332;-94
2023/03/10 00:13:52;;;;;;;;;;;11.10;99.90;11.60;98239.00;;;;337372;28;92249;-93
2023/03/10 00:14:04;;;;;;;;;;;11.10;99.90;11.50;98235.00;;;;340668;28;83258;-94
2023/03/10 00:14:16;;;;;;;;;;;11.10;99.90;11.50;98236.00;;;;337527;28;91958;-94
2023/03/10 00:14:27;;;;;;;;;;;11.10;99.90;11.60;98236.00;;;;337918;28;83448;-94
2023/03/10 00:14:39;;;;;;;;;;;11.10;99.90;11.60;98229.00;;;;338896;28;90933;-94
2023/03/10 00:14:51;;;;;;;;;;;11.10;99.90;11.50;98238.00;;;;340653;28;82522;-94
2023/03/10 00:15:03;;;;;;;;;;;11.10;99.90;11.50;98236.00;;;;338893;28;91559;-94
2023/03/10 00:15:15;;;;;;;;;;;11.10;99.90;11.40;98236.00;;;;337957;28;82535;-94
2023/03/10 00:15:27;;;;;;;;;;;11.10;99.90;11.40;98238.00;;;;338809;28;90882;-94
2023/03/10 00:15:39;;;;;;;;;;;11.10;99.90;11.40;98239.00;;;;339241;28;83439;-93
2023/03/10 00:15:51;;;;;;;;;;;11.00;99.90;11.40;98239.00;;;;341254;28;92429;-93
2023/03/10 00:16:03;;;;;;;;;;;11.00;99.90;11.40;98229.00;;;;341759;28;83551;-94
2023/03/10 00:16:20;;;;;;;;;;;11.00;99.90;11.40;98227.00;;;;337563;28;90256;-94
2023/03/10 00:16:32;;;;;;;;;;;11.00;99.90;11.40;98237.00;;;;339073;28;82499;-94
2023/03/10 00:16:43;;;;;;;;;;;11.00;99.90;11.50;98228.00;;;;337499;28;90579;-94
2023/03/10 00:16:55;;;;;;;;;;;11.00;99.90;11.50;98230.00;;;;344821;28;82423;-94
2023/03/10 00:17:07;;;;;;;;;;;11.00;99.90;11.50;98236.00;;;;338804;28;91520;-94
2023/03/10 00:17:18;;;;;;;;;;;11.00;99.90;11.50;98230.00;;;;337825;28;83461;-94
2023/03/10 00:17:30;;;;;;;;;;;11.00;99.90;11.50;98233.00;;;;338686;28;91400;-94
2023/03/10 00:17:42;;;;;;;;;;;11.00;99.90;11.50;98231.00;;;;340597;28;83397;-94
2023/03/10 00:17:54;;;;;;;;;;;11.00;99.90;11.50;98229.00;;;;339814;28;92694;-94
2023/03/10 00:18:06;;;;;;;;;;;11.00;99.90;11.40;98232.00;;;;339195;28;82604;-94
2023/03/10 00:18:18;;;;;;;;;;;11.00;99.90;11.50;98225.00;;;;341590;28;91655;-93
2023/03/10 00:18:30;;;;;;;;;;;11.00;99.90;11.50;98228.00;;;;339187;28;82353;-94
2023/03/10 00:18:41;;;;;;;;;;;11.00;99.90;11.60;98235.00;;;;340170;28;91866;-95
2023/03/10 00:18:53;;;;;;;;;;;11.00;99.90;11.50;98228.00;;;;339224;28;83368;-94
2023/03/10 00:19:05;;;;;;;;;;;11.00;99.90;11.50;98232.00;;;;341614;28;87729;-94
2023/03/10 00:19:17;;;;;;;;;;;11.00;99.90;11.40;98237.00;;;;337883;28;83408;-94
2023/03/10 00:19:29;;;;;;;;;;;11.00;99.90;11.50;98236.00;;;;337489;28;90495;-93
2023/03/10 00:19:40;;;;;;;;;;;11.00;99.90;11.50;98227.00;;;;339318;28;83339;-94
2023/03/10 00:19:52;;;;;;;;;;;11.00;99.90;11.60;98234.00;;;;337431;28;91174;-94
2023/03/10 00:20:10;;;;;;;;;;;11.00;99.90;11.50;98230.00;;;;340643;28;83247;-94
2023/03/10 00:20:22;;;;;;;;;;;11.00;99.90;11.50;98240.00;;;;337452;28;92580;-93
2023/03/10 00:20:34;;;;;;;;;;;11.00;99.90;11.50;98237.00;;;;339031;28;83494;-95
2023/03/10 00:20:45;;;;;;;;;;;11.00;99.90;11.40;98235.00;;;;339898;28;92795;-94
2023/03/10 00:20:58;;;;;;;;;;;11.00;99.90;11.50;98240.00;;;;339194;28;83415;-94
2023/03/10 00:21:13;;;;;;;;;;;11.00;99.90;11.50;98226.00;;;;342516;27;90643;-93
2023/03/10 00:21:28;;;;;;;;;;;11.00;99.90;11.60;98234.00;;;;337924;28;83482;-94
2023/03/10 00:21:40;;;;;;;;;;;11.00;99.90;11.60;98234.00;;;;339976;28;91237;-94
2023/03/10 00:21:52;;;;;;;;;;;11.10;99.90;11.60;98235.00;;;;337730;28;83489;-94
2023/03/10 00:22:04;;;;;;;;;;;11.10;99.90;11.60;98221.00;;;;338677;28;91681;-94
2023/03/10 00:22:15;;;;;;;;;;;11.10;99.90;11.70;98230.00;;;;337881;28;83390;-94
2023/03/10 00:22:27;;;;;;;;;;;11.10;99.90;11.70;98222.00;;;;338523;28;90483;-94
2023/03/10 00:22:40;;;;;;;;;;;11.10;99.90;11.60;98237.00;;;;340547;28;82517;-94
2023/03/10 00:22:52;;;;;;;;;;;11.10;99.90;11.60;98224.00;;;;340053;28;90335;-94
2023/03/10 00:23:04;;;;;;;;;;;11.10;99.90;11.60;98224.00;;;;339249;28;83371;-95
2023/03/10 00:23:15;;;;;;;;;;;11.10;99.90;11.70;98229.00;;;;337381;28;90459;-94
2023/03/10 00:23:27;;;;;;;;;;;11.10;99.90;11.70;98230.00;;;;339208;28;83440;-94
2023/03/10 00:23:39;;;;;;;;;;;11.10;99.90;11.70;98224.00;;;;339982;28;91616;-93
2023/03/10 00:23:51;;;;;;;;;;;11.10;99.90;11.70;98225.00;;;;340349;28;83437;-95
2023/03/10 00:24:03;;;;;;;;;;;11.20;99.90;11.70;98229.00;;;;339993;28;92317;-94
2023/03/10 00:24:15;;;;;;;;;;;11.10;99.90;11.60;98224.00;;;;339198;28;82512;-94
2023/03/10 00:24:26;;;;;;;;;;;11.20;99.90;11.70;98224.00;;;;338660;28;89403;-94
2023/03/10 00:24:38;;;;;;;;;;;11.20;99.90;11.70;98223.00;;;;340527;28;82355;-94
2023/03/10 00:24:50;;;;;;;;;;;11.10;99.90;11.60;98219.00;;;;338793;28;91689;-94
2023/03/10 00:25:01;;;;;;;;;;;11.20;99.90;11.60;98220.00;;;;337855;28;83438;-94
2023/03/10 00:25:16;;;;;;;;;;;11.20;99.90;11.60;98225.00;;;;338722;28;90335;-94
2023/03/10 00:25:28;;;;;;;;;;;11.20;99.90;11.60;98231.00;;;;338010;28;83484;-94
2023/03/10 00:25:40;;;;;;;;;;;11.20;99.90;11.60;98226.00;;;;338785;28;90056;-94
2023/03/10 00:25:56;;;;;;;;;;;11.20;99.90;11.60;98230.00;;;;337867;28;83366;-94
2023/03/10 00:26:08;;;;;;;;;;;11.20;99.90;11.60;98223.00;;;;338724;28;92470;-94
2023/03/10 00:26:20;;;;;;;;;;;11.20;99.90;11.70;98226.00;;;;339172;28;83443;-94
2023/03/10 00:26:32;;;;;;;;;;;11.20;99.90;11.70;98230.00;;;;340057;28;90749;-94
2023/03/10 00:26:44;;;;;;;;;;;11.20;99.90;11.70;98230.00;;;;339253;28;83372;-95
2023/03/10 00:26:56;;;;;;;;;;;11.20;99.90;11.60;98223.00;;;;338755;28;91222;-94
2023/03/10 00:27:08;;;;;;;;;;;11.20;99.90;11.60;98226.00;;;;339176;28;82569;-94
2023/03/10 00:27:20;;;;;;;;;;;11.20;99.90;11.60;98231.00;;;;339805;28;91600;-94
2023/03/10 00:27:32;;;;;;;;;;;11.20;99.90;11.60;98232.00;;;;340521;28;82630;-94
2023/03/10 00:27:44;;;;;;;;;;;11.20;99.90;11.60;98230.00;;;;338831;28;91397;-94
2023/03/10 00:27:55;;;;;;;;;;;11.20;99.90;11.60;98223.00;;;;339191;28;83502;-94
2023/03/10 00:28:07;;;;;;;;;;;11.20;99.90;11.70;98234.00;;;;338695;28;91129;-93
2023/03/10 00:28:19;;;;;;;;;;;11.20;99.90;11.70;98227.00;;;;339227;28;82536;-94
2023/03/10 00:28:31;;;;;;;;;;;11.20;99.90;11.70;98229.00;;;;338739;28;91475;-94
2023/03/10 00:28:43;;;;;;;;;;;11.20;99.90;11.70;98232.00;;;;337849;28;83450;-94
2023/03/10 00:28:54;;;;;;;;;;;11.20;99.90;11.60;98231.00;;;;338825;28;91721;-94
2023/03/10 00:29:06;;;;;;;;;;;11.20;99.90;11.70;98229.00;;;;340584;28;83616;-94
2023/03/10 00:29:18;;;;;;;;;;;11.20;99.90;11.60;98226.00;;;;337383;28;90570;-94
2023/03/10 00:29:30;;;;;;;;;;;11.20;99.90;11.70;98227.00;;;;340560;28;83329;-95
2023/03/10 00:29:42;;;;;;;;;;;11.20;99.90;11.60;98229.00;;;;337468;28;89659;-94
2023/03/10 00:29:53;;;;;;;;;;;11.20;99.90;11.70;98222.00;;;;339206;28;83388;-94
2023/03/10 00:30:06;;;;;;;;;;;11.20;99.90;11.70;98232.00;;;;341198;28;91554;-94
2023/03/10 00:30:18;;;;;;;;;;;11.20;99.90;11.60;98230.00;;;;337944;28;82448;-95
2023/03/10 00:30:33;;;;;;;;;;;11.20;99.90;11.60;98233.00;;;;340122;28;91859;-94
2023/03/10 00:30:56;;;;;;;;;;;11.20;99.90;11.60;98231.00;;;;339194;28;83331;-94
2023/03/10 00:31:11;;;;;;;;;;;11.20;99.90;11.60;98225.00;;;;337425;28;90687;-93
2023/03/10 00:31:24;;;;;;;;;;;11.20;99.90;11.70;98222.00;;;;337791;28;83450;-94
2023/03/10 00:31:36;;;;;;;;;;;11.20;99.90;11.60;98223.00;;;;338847;28;91449;-94
2023/03/10 00:31:48;;;;;;;;;;;11.20;99.90;11.70;98231.00;;;;340529;28;83472;-94
2023/03/10 00:31:59;;;;;;;;;;;11.20;99.90;11.70;98228.00;;;;341403;27;91663;-94
2023/03/10 00:32:11;;;;;;;;;;;11.20;99.90;11.70;98227.00;;;;339250;28;83869;-95
2023/03/10 00:32:23;;;;;;;;;;;11.20;99.90;11.60;98220.00;;;;338421;28;90425;-93
2023/03/10 00:32:35;;;;;;;;;;;11.20;99.90;11.60;98222.00;;;;339059;28;83360;-94
2023/03/10 00:32:49;;;;;;;;;;;11.20;99.90;11.60;98225.00;;;;338867;28;89076;-94
2023/03/10 00:33:01;;;;;;;;;;;11.20;99.90;11.60;98220.00;;;;339198;28;83435;-94
2023/03/10 00:33:13;;;;;;;;;;;11.20;99.90;11.70;98218.00;;;;340020;28;91719;-94
2023/03/10 00:33:25;;;;;;;;;;;11.20;99.90;11.70;98217.00;;;;340434;28;84121;-93
2023/03/10 00:33:37;;;;;;;;;;;11.20;99.90;11.70;98225.00;;;;344476;28;91207;-92
2023/03/10 00:33:49;;;;;;;;;;;11.20;99.90;11.60;98217.00;;;;346127;28;83311;-94
2023/03/10 00:34:01;;;;;;;;;;;11.20;99.90;11.60;98229.00;;;;338691;28;89541;-94
2023/03/10 00:34:13;;;;;;;;;;;11.20;99.90;11.70;98218.00;;;;337976;28;83326;-94
2023/03/10 00:34:25;;;;;;;;;;;11.20;99.90;11.70;98224.00;;;;338735;28;91297;-94
2023/03/10 00:34:37;;;;;;;;;;;11.20;99.90;11.70;98213.00;;;;337794;28;83606;-95
2023/03/10 00:34:48;;;;;;;;;;;11.20;99.90;11.60;98224.00;;;;337252;28;91882;-93
2023/03/10 00:35:01;;;;;;;;;;;11.20;99.90;11.60;98219.00;;;;337901;28;83408;-94
2023/03/10 00:35:13;;;;;;;;;;;11.20;99.90;11.70;98216.00;;;;338644;28;91833;-95
2023/03/10 00:35:24;;;;;;;;;;;11.20;99.90;11.60;98216.00;;;;339171;28;83576;-93
2023/03/10 00:35:36;;;;;;;;;;;11.30;99.90;11.60;98217.00;;;;340108;28;90544;-94
2023/03/10 00:35:48;;;;;;;;;;;11.20;99.90;11.60;98217.00;;;;340565;28;83292;-94
2023/03/10 00:36:04;;;;;;;;;;;11.20;99.90;11.60;98226.00;;;;338673;28;90027;-94
2023/03/10 00:36:23;;;;;;;;;;;11.20;99.90;11.70;98220.00;;;;340515;28;83494;-94
2023/03/10 00:36:34;;;;;;;;;;;11.30;99.90;11.70;98223.00;;;;339821;28;92443;-94
2023/03/10 00:36:46;;;;;;;;;;;11.30;99.90;11.70;98215.00;;;;340525;28;83587;-94
2023/03/10 00:36:58;;;;;;;;;;;11.30;99.90;11.70;98223.00;;;;339711;28;90451;-93
2023/03/10 00:37:10;;;;;;;;;;;11.30;99.90;11.70;98222.00;;;;337943;28;83344;-94
2023/03/10 00:37:21;;;;;;;;;;;11.30;99.90;11.70;98218.00;;;;340040;28;90292;-94
2023/03/10 00:37:37;;;;;;;;;;;11.20;99.90;11.80;98222.00;;;;337868;28;83467;-94
2023/03/10 00:37:48;;;;;;;;;;;11.20;99.90;11.80;98222.00;;;;338592;28;90583;-95
2023/03/10 00:38:01;;;;;;;;;;;11.30;99.90;11.80;98214.00;;;;340558;28;83435;-94
2023/03/10 00:38:13;;;;;;;;;;;11.20;99.90;11.80;98221.00;;;;340113;28;91568;-94
2023/03/10 00:38:24;;;;;;;;;;;11.30;99.90;11.70;98216.00;;;;336469;28;83376;-94
2023/03/10 00:38:37;;;;;;;;;;;11.30;99.90;11.70;98220.00;;;;338607;28;92821;-94
2023/03/10 00:38:49;;;;;;;;;;;11.30;99.90;11.70;98212.00;;;;339246;28;83642;-94
2023/03/10 00:39:00;;;;;;;;;;;11.30;99.90;11.70;98226.00;;;;338815;28;90055;-94
2023/03/10 00:39:12;;;;;;;;;;;11.30;99.90;11.70;98224.00;;;;336517;28;83315;-94
2023/03/10 00:39:24;;;;;;;;;;;11.30;99.90;11.70;98228.00;;;;337456;28;89801;-94
2023/03/10 00:39:36;;;;;;;;;;;11.30;99.90;11.70;98216.00;;;;336684;28;83307;-94
2023/03/10 00:39:51;;;;;;;;;;;11.30;99.90;11.70;98216.00;;;;338802;28;91430;-95
2023/03/10 00:40:09;;;;;;;;;;;11.30;99.90;11.70;98224.00;;;;336586;28;82492;-95
2023/03/10 00:40:21;;;;;;;;;;;11.30;99.90;11.70;98213.00;;;;341322;28;90433;-94
2023/03/10 00:40:32;;;;;;;;;;;11.30;99.90;11.70;98228.00;;;;340417;28;83468;-94
2023/03/10 00:40:44;;;;;;;;;;;11.30;99.90;11.80;98217.00;;;;341401;28;92316;-94
2023/03/10 00:40:58;;;;;;;;;;;11.30;99.90;11.80;98218.00;;;;339164;28;83416;-94
2023/03/10 00:41:12;;;;;;;;;;;11.30;99.90;11.70;98220.00;;;;338872;28;91460;-94
2023/03/10 00:41:25;;;;;;;;;;;11.30;99.90;11.70;98217.00;;;;341852;28;83385;-95
2023/03/10 00:41:38;;;;;;;;;;;11.30;99.90;11.70;98218.00;;;;338685;28;90505;-94
2023/03/10 00:41:49;;;;;;;;;;;11.30;99.90;11.80;98216.00;;;;341862;28;83312;-94
2023/03/10 00:42:01;;;;;;;;;;;11.30;99.90;11.80;98215.00;;;;337358;28;90458;-94
2023/03/10 00:42:13;;;;;;;;;;;11.30;99.90;11.80;98216.00;;;;339139;28;82511;-94
2023/03/10 00:42:25;;;;;;;;;;;11.30;99.90;11.80;98214.00;;;;341412;28;91541;-94
2023/03/10 00:42:36;;;;;;;;;;;11.30;99.90;11.70;98216.00;;;;339172;28;82546;-94
2023/03/10 00:42:48;;;;;;;;;;;11.30;99.90;11.80;98215.00;;;;340088;28;91846;-94
2023/03/10 00:43:00;;;;;;;;;;;11.30;99.90;11.80;98215.00;;;;339193;28;83330;-94
2023/03/10 00:43:12;;;;;;;;;;;11.30;99.90;11.80;98215.00;;;;341463;28;90434;-94
2023/03/10 00:43:23;;;;;;;;;;;11.30;99.90;11.70;98224.00;;;;340484;28;82533;-93
2023/03/10 00:43:35;;;;;;;;;;;11.30;99.90;11.70;98213.00;;;;343033;28;90770;-94
2023/03/10 00:43:47;;;;;;;;;;;11.30;99.90;11.80;98208.00;;;;337878;28;83354;-93
2023/03/10 00:43:59;;;;;;;;;;;11.30;99.90;11.80;98225.00;;;;338684;28;89634;-94
2023/03/10 00:44:12;;;;;;;;;;;11.30;99.90;11.80;98222.00;;;;343258;28;83397;-94
2023/03/10 00:44:23;;;;;;;;;;;11.30;99.90;11.70;98214.00;;;;340111;28;90728;-94
2023/03/10 00:44:35;;;;;;;;;;;11.30;99.90;11.70;98227.00;;;;339113;28;83515;-94
2023/03/10 00:44:47;;;;;;;;;;;11.30;99.90;11.70;98220.00;;;;341512;28;91214;-95
2023/03/10 00:44:59;;;;;;;;;;;11.30;99.90;11.80;98215.00;;;;340568;28;83323;-94
2023/03/10 00:45:11;;;;;;;;;;;11.30;99.90;11.80;98223.00;;;;340037;28;91870;-94
2023/03/10 00:45:22;;;;;;;;;;;11.40;99.90;11.80;98219.00;;;;341897;28;82497;-94
2023/03/10 00:45:34;;;;;;;;;;;11.30;99.90;11.80;98209.00;;;;341454;28;90171;-94
2023/03/10 00:45:46;;;;;;;;;;;11.30;99.90;11.80;98204.00;;;;337961;28;83391;-94
2023/03/10 00:45:58;;;;;;;;;;;11.40;99.90;11.80;98221.00;;;;338779;28;91649;-94
2023/03/10 00:46:10;;;;;;;;;;;11.30;99.90;11.80;98210.00;;;;340433;28;82471;-94
2023/03/10 00:46:23;;;;;;;;;;;11.40;99.90;11.80;98214.00;;;;337334;28;90689;-93
2023/03/10 00:46:37;;;;;;;;;;;11.30;99.90;11.80;98214.00;;;;337887;28;82509;-94
2023/03/10 00:46:49;;;;;;;;;;;11.30;99.90;11.80;98205.00;;;;337430;28;92433;-94
2023/03/10 00:47:01;;;;;;;;;;;11.30;99.90;11.80;98214.00;;;;339131;28;82534;-95
2023/03/10 00:47:12;;;;;;;;;;;11.30;99.90;11.80;98214.00;;;;338850;28;90324;-94
2023/03/10 00:47:24;;;;;;;;;;;11.30;99.90;11.70;98213.00;;;;336519;28;83442;-95
2023/03/10 00:47:37;;;;;;;;;;;11.40;99.90;11.70;98219.00;;;;338765;28;91484;-94
2023/03/10 00:47:48;;;;;;;;;;;11.30;99.90;11.70;98224.00;;;;340586;28;83485;-94
2023/03/10 00:48:00;;;;;;;;;;;11.40;99.90;11.70;98213.00;;;;338798;28;90547;-94
2023/03/10 00:48:12;;;;;;;;;;;11.30;99.90;11.80;98215.00;;;;340746;28;83422;-94
2023/03/10 00:48:24;;;;;;;;;;;11.40;99.90;11.80;98215.00;;;;339188;28;92237;-94
2023/03/10 00:48:36;;;;;;;;;;;11.30;99.90;11.80;98215.00;;;;336940;28;82504;-94
2023/03/10 00:48:47;;;;;;;;;;;11.30;99.90;11.80;98208.00;;;;343249;28;92286;-94
2023/03/10 00:48:59;;;;;;;;;;;11.30;99.90;11.80;98215.00;;;;339656;28;82399;-94
2023/03/10 00:49:14;;;;;;;;;;;11.30;99.90;11.70;98211.00;;;;339103;28;90232;-94
2023/03/10 00:49:26;;;;;;;;;;;11.30;99.90;11.70;98212.00;;;;342261;28;82580;-94
2023/03/10 00:49:37;;;;;;;;;;;11.30;99.90;11.80;98219.00;;;;340660;28;89772;-94
2023/03/10 00:49:49;;;;;;;;;;;11.30;99.90;11.80;98213.00;;;;340732;28;83407;-95
2023/03/10 00:50:01;;;;;;;;;;;11.30;99.90;11.70;98215.00;;;;340677;28;91843;-94
2023/03/10 00:50:13;;;;;;;;;;;11.30;99.90;11.70;98218.00;;;;338377;28;82566;-94
2023/03/10 00:50:24;;;;;;;;;;;11.30;99.90;11.70;98211.00;;;;341787;28;90039;-93
2023/03/10 00:50:36;;;;;;;;;;;11.30;99.90;11.70;98217.00;;;;339725;28;82575;-93
2023/03/10 00:50:48;;;;;;;;;;;11.30;99.90;11.70;98217.00;;;;347748;28;90933;-94
2023/03/10 00:51:00;;;;;;;;;;;11.30;99.90;11.70;98217.00;;;;341146;28;83342;-93
2023/03/10 00:51:12;;;;;;;;;;;11.30;99.90;11.60;98206.00;;;;339241;28;90490;-94
2023/03/10 00:51:24;;;;;;;;;;;11.30;99.90;11.60;98206.00;;;;341062;28;83313;-94
2023/03/10 00:51:35;;;;;;;;;;;11.30;99.90;11.60;98205.00;;;;338081;28;90389;-94
2023/03/10 00:51:47;;;;;;;;;;;11.30;99.90;11.70;98202.00;;;;338543;28;82534;-95
2023/03/10 00:51:59;;;;;;;;;;;11.30;99.90;11.70;98211.00;;;;339375;28;90343;-93
2023/03/10 00:52:11;;;;;;;;;;;11.30;99.90;11.70;98198.00;;;;339851;28;82506;-94
2023/03/10 00:52:23;;;;;;;;;;;11.30;99.90;11.80;98203.00;;;;340751;28;90750;-94
2023/03/10 00:52:34;;;;;;;;;;;11.30;99.90;11.80;98204.00;;;;342395;28;82497;-94
2023/03/10 00:52:46;;;;;;;;;;;11.30;99.90;11.70;98205.00;;;;338104;28;92014;-94
2023/03/10 00:52:58;;;;;;;;;;;11.30;99.90;11.70;98202.00;;;;337206;28;82488;-93
2023/03/10 00:53:10;;;;;;;;;;;11.30;99.90;11.70;98199.00;;;;339199;28;90463;-94
2023/03/10 00:53:21;;;;;;;;;;;11.30;99.90;11.70;98202.00;;;;339709;28;82477;-94
2023/03/10 00:53:34;;;;;;;;;;;11.30;99.90;11.70;98195.00;;;;340452;28;90748;-94
2023/03/10 00:53:46;;;;;;;;;;;11.30;99.90;11.70;98197.00;;;;342262;28;82493;-94
2023/03/10 00:53:59;;;;;;;;;;;11.30;99.90;11.70;98198.00;;;;341650;28;89989;-94
2023/03/10 00:54:11;;;;;;;;;;;11.30;99.90;11.70;98203.00;;;;339372;28;83299;-94
2023/03/10 00:54:23;;;;;;;;;;;11.30;99.90;11.70;98194.00;;;;338828;28;90942;-94
2023/03/10 00:54:38;;;;;;;;;;;11.30;99.90;11.70;98193.00;;;;340490;28;83540;-94
2023/03/10 00:54:50;;;;;;;;;;;11.30;99.90;11.70;98199.00;;;;340190;28;91847;-94
2023/03/10 00:55:02;;;;;;;;;;;11.30;99.90;11.70;98199.00;;;;339481;28;83306;-93
2023/03/10 00:55:14;;;;;;;;;;;11.30;99.90;11.70;98194.00;;;;341475;28;91218;-94
2023/03/10 00:55:26;;;;;;;;;;;11.30;99.90;11.80;98197.00;;;;339525;28;82518;-95
2023/03/10 00:55:37;;;;;;;;;;;11.30;99.90;11.80;98211.00;;;;337954;28;91595;-94
2023/03/10 00:56:06;;;;;;;;;;;11.30;99.90;11.70;98192.00;;;;339907;28;82539;-94
2023/03/10 00:56:24;;;;;;;;;;;11.30;99.90;11.60;98195.00;;;;339220;28;89712;-94
2023/03/10 00:56:36;;;;;;;;;;;11.30;99.90;11.60;98191.00;;;;339780;28;82548;-94
2023/03/10 00:56:48;;;;;;;;;;;11.30;99.90;11.70;98199.00;;;;336855;28;90616;-94
2023/03/10 00:57:00;;;;;;;;;;;11.30;99.90;11.60;98197.00;;;;341294;28;82591;-95
2023/03/10 00:57:11;;;;;;;;;;;11.30;99.90;11.70;98195.00;;;;340976;28;91407;-92
2023/03/10 00:57:23;;;;;;;;;;;11.30;99.90;11.70;98200.00;;;;341869;28;82948;-93
2023/03/10 00:57:35;;;;;;;;;;;11.30;99.90;11.60;98195.00;;;;341423;28;90436;-93
2023/03/10 00:57:47;;;;;;;;;;;11.30;99.90;11.60;98200.00;;;;341771;28;83522;-93
2023/03/10 00:57:59;;;;;;;;;;;11.30;99.90;11.60;98196.00;;;;344080;28;90271;-92
2023/03/10 00:58:10;;;;;;;;;;;11.30;99.90;11.60;98192.00;;;;340239;28;83024;-94
2023/03/10 00:58:23;;;;;;;;;;;11.30;99.90;11.70;98188.00;;;;345638;28;90540;-93
2023/03/10 00:58:35;;;;;;;;;;;11.30;99.90;11.60;98190.00;;;;341790;28;82571;-93
2023/03/10 00:58:54;;;;;;;;;;;11.30;99.90;11.60;98193.00;;;;338750;28;90575;-94
2023/03/10 00:59:06;;;;;;;;;;;11.20;99.90;11.50;98190.00;;;;341696;28;82438;-94
2023/03/10 00:59:18;;;;;;;;;;;11.30;99.90;11.50;98196.00;;;;339833;28;91362;-93
2023/03/10 00:59:30;;;;;;;;;;;11.20;99.90;11.60;98193.00;;;;348737;28;83339;-93
2023/03/10 01:00:00;;;;;;;;;;;11.20;99.90;11.60;98196.00;;;;344851;28;90853;-94
2023/03/10 01:00:14;;;;;;;;;;;11.30;99.90;11.60;98193.00;;;;345483;28;83550;-94
2023/03/10 01:00:26;;;;;;;;;;;11.20;99.90;11.60;98195.00;;;;346465;28;90300;-94
2023/03/10 01:00:38;;;;;;;;;;;11.20;99.90;11.60;98195.00;;;;340587;28;82619;-94
2023/03/10 01:00:50;;;;;;;;;;;11.20;99.90;11.60;98198.00;;;;338840;28;90865;-95
2023/03/10 01:01:02;;;;;;;;;;;11.20;99.90;11.60;98189.00;;;;342053;28;82434;-93
2023/03/10 01:01:16;;;;;;;;;;;11.20;99.90;11.60;98183.00;;;;338648;28;91645;-94
2023/03/10 01:01:33;;;;;;;;;;;11.20;99.90;11.60;98196.00;;;;339342;28;83328;-94